Angora, Minnesota
Current Conditions -  °F | °C
As of 8:34 AM on Saturday 22 Nov 2014 (Local Time) from KCQM Reporting Station
Haze Haze  
Wind Chill: 23°   Ceiling: 1400
Heat Index: 28°   Visibility: 4mi
Dew Point: 27°   Wind: 5mph
Humidity: 93%   Direction: 180°S
Pressure: 29.64"   Gusts: NA
Location:  47.77°N, 92.63°W
Report Text: KCQM 221434Z AUTO 18004KT 4SM BR SCT006 OVC014 M02/M03 A2964 RMK AO2
Loading
Personal Weather Stations






























Interactive Weather Map New forecast layout! Learn more

10-Day Weather Forecast

Advertisements
Track Severe Weather on mobile